Hummelstown, Pennsylvania
Current Conditions -  °F | °C
As of 8:56 AM on Friday 24 Oct 2014 (Local Time) from KMDT Reporting Station
Broken Clouds Broken Clouds  
Wind Chill: 56°   Ceiling: 4000
Heat Index: 56°   Visibility: 10mi
Dew Point: 43°   Wind: 15mph
Humidity: 62%   Direction: 310°NW
Pressure: 29.94"   Gusts: NA
Location:  40.27°N, 76.71°W
Report Text: KMDT 241256Z 31013KT 10SM BKN040 13/06 A2994 RMK AO2 SLP139 T01330061
Loading
Personal Weather Stations






























Interactive Weather Map
Tropical Storm Tracking
New forecast layout! Learn more

10-Day Weather Forecast

Advertisements
Track Severe Weather on mobile